This is the latest recevied weather packets stored in our database for station/object W1RCY. If no packets are shown the sender has not sent any weather packets the latest 10 day(s).
| Time | Temp. | Humidity | Pressure | Rain* | Wind** | Luminosity | Snow |
|---|---|---|---|---|---|---|---|
| 1777715692 | 5.56° C | 80% | 1010.7 hPa | 0 mm | - | 0 W/m² | - |
| 1777715390 | 5.56° C | 76% | 1010.8 hPa | 0 mm | - | 2 W/m² | - |
| 1777715087 | 5° C | 78% | 1010.6 hPa | 0 mm | - | 0 W/m² | - |
| 1777714785 | 4.44° C | 85% | 1010.5 hPa | 0 mm | - | 0 W/m² | - |
| 1777714484 | 4.44° C | 80% | 1010.2 hPa | 0 mm | - | 0 W/m² | - |
| 1777714181 | 5° C | 82% | 1010.2 hPa | 0 mm | - | 0 W/m² | - |
| 1777713878 | 5° C | 76% | 1010.2 hPa | 0 mm | - | 0 W/m² | - |
| 1777713576 | 4.44° C | 77% | 1010.5 hPa | 0 mm | - | 0 W/m² | - |
| 1777713272 | 3.89° C | 84% | 1010 hPa | 0 mm | - | 0 W/m² | - |
| 1777712969 | 3.33° C | 87% | 1010 hPa | 0 mm | - | 0 W/m² | - |
| 1777712666 | 3.89° C | 87% | 1010 hPa | 0 mm | - | 0 W/m² | - |
| 1777712362 | 5° C | 83% | 1010 hPa | 0 mm | - | 0 W/m² | - |
| 1777712059 | 4.44° C | 80% | 1009.8 hPa | 0 mm | - | 0 W/m² | - |
| 1777711756 | 3.89° C | 86% | 1010 hPa | 0 mm | - | 0 W/m² | - |
| 1777711453 | 3.33° C | 85% | 1009.9 hPa | 0 mm | - | 0 W/m² | - |
| 1777711148 | 3.89° C | 85% | 1010.1 hPa | 0 mm | - | 0 W/m² | - |
| 1777710844 | 4.44° C | 79% | 1010 hPa | 0 mm | - | 0 W/m² | - |
| 1777710542 | 4.44° C | 81% | 1010.2 hPa | 0 mm | - | 0 W/m² | - |
| 1777710239 | 3.89° C | 85% | 1010.6 hPa | 0 mm | - | 0 W/m² | - |
| 1777709937 | 3.33° C | 88% | 1010.7 hPa | 0 mm | - | 0 W/m² | - |
| 1777709634 | 3.33° C | 88% | 1010.7 hPa | 0 mm | - | 0 W/m² | - |
| 1777709330 | 3.33° C | 87% | 1010.5 hPa | 0 mm | - | 0 W/m² | - |
| 1777709028 | 4.44° C | 83% | 1010.6 hPa | 0 mm | - | 0 W/m² | - |
| 1777708725 | 5.56° C | 70% | 1010.5 hPa | 0 mm | - | 0 W/m² | - |
| 1777708423 | 5.56° C | 66% | 1010.6 hPa | 0 mm | - | 0 W/m² | - |
* Rain latest hour (hover to see other rain measurements)
** Current wind speed in m/s (hover to see current wind gust speed)